sensor_id;sensor_type;location;lat;lon;timestamp;P1;durP1;ratioP1;P2;durP2;ratioP2
18364;SDS011;9309;52.126;11.616;2023-05-20T00:00:21;2.37;;;2.13;;
18364;SDS011;9309;52.126;11.616;2023-05-20T00:02:49;2.53;;;2.43;;
18364;SDS011;9309;52.126;11.616;2023-05-20T00:05:16;3.17;;;2.50;;
18364;SDS011;9309;52.126;11.616;2023-05-20T00:07:42;2.00;;;1.90;;
18364;SDS011;9309;52.126;11.616;2023-05-20T00:10:09;2.30;;;2.10;;
18364;SDS011;9309;52.126;11.616;2023-05-20T00:12:36;2.53;;;2.43;;
18364;SDS011;9309;52.126;11.616;2023-05-20T00:15:04;2.40;;;2.30;;
18364;SDS011;9309;52.126;11.616;2023-05-20T00:17:31;2.47;;;2.37;;
18364;SDS011;9309;52.126;11.616;2023-05-20T00:19:59;3.13;;;2.50;;
18364;SDS011;9309;52.126;11.616;2023-05-20T00:22:26;2.50;;;2.40;;
18364;SDS011;9309;52.126;11.616;2023-05-20T00:24:52;2.20;;;2.10;;
18364;SDS011;9309;52.126;11.616;2023-05-20T00:27:19;4.53;;;2.37;;
18364;SDS011;9309;52.126;11.616;2023-05-20T00:29:45;2.20;;;2.10;;
18364;SDS011;9309;52.126;11.616;2023-05-20T00:32:12;2.10;;;2.00;;
18364;SDS011;9309;52.126;11.616;2023-05-20T00:34:39;3.93;;;2.10;;
18364;SDS011;9309;52.126;11.616;2023-05-20T00:37:07;1.83;;;1.83;;
18364;SDS011;9309;52.126;11.616;2023-05-20T00:39:34;2.40;;;2.30;;
18364;SDS011;9309;52.126;11.616;2023-05-20T00:42:00;4.43;;;2.90;;
18364;SDS011;9309;52.126;11.616;2023-05-20T00:44:27;2.37;;;2.27;;
18364;SDS011;9309;52.126;11.616;2023-05-20T00:46:54;2.33;;;2.23;;
18364;SDS011;9309;52.126;11.616;2023-05-20T00:49:21;2.20;;;2.20;;
18364;SDS011;9309;52.126;11.616;2023-05-20T00:51:48;2.30;;;2.20;;
18364;SDS011;9309;52.126;11.616;2023-05-20T00:54:16;3.00;;;2.50;;
18364;SDS011;9309;52.126;11.616;2023-05-20T00:56:44;2.07;;;1.90;;
18364;SDS011;9309;52.126;11.616;2023-05-20T00:59:10;2.70;;;2.20;;
18364;SDS011;9309;52.126;11.616;2023-05-20T01:01:37;2.53;;;2.37;;
18364;SDS011;9309;52.126;11.616;2023-05-20T01:04:05;2.50;;;2.13;;
18364;SDS011;9309;52.126;11.616;2023-05-20T01:06:32;2.23;;;2.17;;
18364;SDS011;9309;52.126;11.616;2023-05-20T01:08:59;3.37;;;2.50;;
18364;SDS011;9309;52.126;11.616;2023-05-20T01:11:27;2.70;;;2.50;;
18364;SDS011;9309;52.126;11.616;2023-05-20T01:14:00;2.37;;;2.27;;
18364;SDS011;9309;52.126;11.616;2023-05-20T01:16:31;2.97;;;2.67;;
18364;SDS011;9309;52.126;11.616;2023-05-20T01:18:58;3.13;;;2.87;;
18364;SDS011;9309;52.126;11.616;2023-05-20T01:21:28;2.47;;;2.37;;
18364;SDS011;9309;52.126;11.616;2023-05-20T01:23:57;2.80;;;2.60;;
18364;SDS011;9309;52.126;11.616;2023-05-20T01:26:25;2.50;;;2.40;;
18364;SDS011;9309;52.126;11.616;2023-05-20T01:28:52;2.50;;;2.37;;
18364;SDS011;9309;52.126;11.616;2023-05-20T01:31:22;2.67;;;2.47;;
18364;SDS011;9309;52.126;11.616;2023-05-20T01:33:53;5.80;;;2.60;;
18364;SDS011;9309;52.126;11.616;2023-05-20T01:36:22;2.97;;;2.77;;
18364;SDS011;9309;52.126;11.616;2023-05-20T01:38:50;2.50;;;2.40;;
18364;SDS011;9309;52.126;11.616;2023-05-20T01:41:20;2.60;;;2.40;;
18364;SDS011;9309;52.126;11.616;2023-05-20T01:43:48;2.47;;;2.17;;
18364;SDS011;9309;52.126;11.616;2023-05-20T01:46:15;2.33;;;2.20;;
18364;SDS011;9309;52.126;11.616;2023-05-20T01:48:42;2.90;;;2.50;;
18364;SDS011;9309;52.126;11.616;2023-05-20T01:51:08;3.03;;;2.73;;
18364;SDS011;9309;52.126;11.616;2023-05-20T01:53:35;4.43;;;2.60;;
18364;SDS011;9309;52.126;11.616;2023-05-20T01:56:03;2.67;;;2.47;;
18364;SDS011;9309;52.126;11.616;2023-05-20T01:58:32;2.57;;;2.37;;
18364;SDS011;9309;52.126;11.616;2023-05-20T02:00:59;3.20;;;2.87;;
18364;SDS011;9309;52.126;11.616;2023-05-20T02:03:25;2.90;;;2.70;;
18364;SDS011;9309;52.126;11.616;2023-05-20T02:05:53;2.00;;;2.00;;
18364;SDS011;9309;52.126;11.616;2023-05-20T02:08:21;2.67;;;2.40;;
18364;SDS011;9309;52.126;11.616;2023-05-20T02:10:48;4.30;;;2.80;;
18364;SDS011;9309;52.126;11.616;2023-05-20T02:13:14;2.73;;;2.63;;
18364;SDS011;9309;52.126;11.616;2023-05-20T02:15:43;6.90;;;2.80;;
18364;SDS011;9309;52.126;11.616;2023-05-20T02:18:09;2.93;;;2.73;;
18364;SDS011;9309;52.126;11.616;2023-05-20T02:20:38;2.63;;;2.30;;
18364;SDS011;9309;52.126;11.616;2023-05-20T02:23:05;2.70;;;2.60;;
18364;SDS011;9309;52.126;11.616;2023-05-20T02:25:32;2.50;;;2.40;;
18364;SDS011;9309;52.126;11.616;2023-05-20T02:27:59;2.70;;;2.50;;
18364;SDS011;9309;52.126;11.616;2023-05-20T02:30:29;3.63;;;2.90;;
18364;SDS011;9309;52.126;11.616;2023-05-20T02:32:57;2.77;;;2.63;;
18364;SDS011;9309;52.126;11.616;2023-05-20T02:35:24;4.27;;;3.03;;
18364;SDS011;9309;52.126;11.616;2023-05-20T02:37:51;4.23;;;2.67;;
18364;SDS011;9309;52.126;11.616;2023-05-20T02:40:18;2.73;;;2.60;;
18364;SDS011;9309;52.126;11.616;2023-05-20T02:42:45;3.17;;;2.97;;
18364;SDS011;9309;52.126;11.616;2023-05-20T02:45:12;2.43;;;2.33;;
18364;SDS011;9309;52.126;11.616;2023-05-20T02:47:38;2.90;;;2.80;;
18364;SDS011;9309;52.126;11.616;2023-05-20T02:50:07;2.40;;;2.30;;
18364;SDS011;9309;52.126;11.616;2023-05-20T02:52:35;2.37;;;2.27;;
18364;SDS011;9309;52.126;11.616;2023-05-20T02:55:03;3.10;;;2.83;;
18364;SDS011;9309;52.126;11.616;2023-05-20T02:57:30;2.47;;;2.37;;
18364;SDS011;9309;52.126;11.616;2023-05-20T02:59:59;3.03;;;2.60;;
18364;SDS011;9309;52.126;11.616;2023-05-20T03:02:25;3.10;;;2.90;;
18364;SDS011;9309;52.126;11.616;2023-05-20T03:04:52;2.33;;;2.23;;
18364;SDS011;9309;52.126;11.616;2023-05-20T03:07:20;2.93;;;2.43;;
18364;SDS011;9309;52.126;11.616;2023-05-20T03:09:47;3.80;;;2.27;;
18364;SDS011;9309;52.126;11.616;2023-05-20T03:12:15;2.83;;;2.53;;
18364;SDS011;9309;52.126;11.616;2023-05-20T03:14:42;3.27;;;3.07;;
18364;SDS011;9309;52.126;11.616;2023-05-20T03:17:09;3.10;;;2.90;;
18364;SDS011;9309;52.126;11.616;2023-05-20T03:19:36;2.80;;;2.60;;
18364;SDS011;9309;52.126;11.616;2023-05-20T03:22:03;3.17;;;2.93;;
18364;SDS011;9309;52.126;11.616;2023-05-20T03:24:32;3.13;;;2.83;;
18364;SDS011;9309;52.126;11.616;2023-05-20T03:26:59;4.03;;;2.70;;
18364;SDS011;9309;52.126;11.616;2023-05-20T03:29:26;2.80;;;2.70;;
18364;SDS011;9309;52.126;11.616;2023-05-20T03:31:53;3.97;;;2.90;;
18364;SDS011;9309;52.126;11.616;2023-05-20T03:34:20;2.97;;;2.83;;
18364;SDS011;9309;52.126;11.616;2023-05-20T03:36:49;5.30;;;3.10;;
18364;SDS011;9309;52.126;11.616;2023-05-20T03:39:16;4.07;;;3.27;;
18364;SDS011;9309;52.126;11.616;2023-05-20T03:41:45;5.87;;;3.13;;
18364;SDS011;9309;52.126;11.616;2023-05-20T03:44:12;3.33;;;2.87;;
18364;SDS011;9309;52.126;11.616;2023-05-20T03:46:39;3.50;;;3.30;;
18364;SDS011;9309;52.126;11.616;2023-05-20T03:49:07;2.83;;;2.73;;
18364;SDS011;9309;52.126;11.616;2023-05-20T03:51:34;3.60;;;3.30;;
18364;SDS011;9309;52.126;11.616;2023-05-20T03:54:06;4.10;;;3.27;;
18364;SDS011;9309;52.126;11.616;2023-05-20T03:56:34;4.27;;;3.20;;
18364;SDS011;9309;52.126;11.616;2023-05-20T03:59:03;7.17;;;3.23;;
18364;SDS011;9309;52.126;11.616;2023-05-20T04:01:30;4.50;;;3.33;;
18364;SDS011;9309;52.126;11.616;2023-05-20T04:03:57;3.80;;;3.47;;
18364;SDS011;9309;52.126;11.616;2023-05-20T04:06:24;3.33;;;3.03;;
18364;SDS011;9309;52.126;11.616;2023-05-20T04:08:52;3.37;;;3.17;;
18364;SDS011;9309;52.126;11.616;2023-05-20T04:11:20;3.63;;;3.33;;
18364;SDS011;9309;52.126;11.616;2023-05-20T04:13:47;3.93;;;3.27;;
18364;SDS011;9309;52.126;11.616;2023-05-20T04:16:15;3.73;;;3.40;;
18364;SDS011;9309;52.126;11.616;2023-05-20T04:18:41;3.83;;;3.43;;
18364;SDS011;9309;52.126;11.616;2023-05-20T04:21:10;8.17;;;3.90;;
18364;SDS011;9309;52.126;11.616;2023-05-20T04:23:37;2.80;;;2.70;;
18364;SDS011;9309;52.126;11.616;2023-05-20T04:26:04;3.60;;;3.10;;
18364;SDS011;9309;52.126;11.616;2023-05-20T04:28:31;3.80;;;3.57;;
18364;SDS011;9309;52.126;11.616;2023-05-20T04:30:58;4.40;;;3.10;;
18364;SDS011;9309;52.126;11.616;2023-05-20T04:33:28;3.33;;;3.13;;
18364;SDS011;9309;52.126;11.616;2023-05-20T04:35:55;3.70;;;3.40;;
18364;SDS011;9309;52.126;11.616;2023-05-20T04:38:23;3.53;;;3.27;;
18364;SDS011;9309;52.126;11.616;2023-05-20T04:40:54;6.47;;;3.37;;
18364;SDS011;9309;52.126;11.616;2023-05-20T04:43:22;5.40;;;4.27;;
18364;SDS011;9309;52.126;11.616;2023-05-20T04:45:49;3.57;;;3.17;;
18364;SDS011;9309;52.126;11.616;2023-05-20T04:48:17;9.17;;;3.63;;
18364;SDS011;9309;52.126;11.616;2023-05-20T04:50:45;3.30;;;3.07;;
18364;SDS011;9309;52.126;11.616;2023-05-20T04:53:13;3.57;;;3.30;;
18364;SDS011;9309;52.126;11.616;2023-05-20T04:55:40;4.87;;;3.57;;
18364;SDS011;9309;52.126;11.616;2023-05-20T04:58:07;2.80;;;2.63;;
18364;SDS011;9309;52.126;11.616;2023-05-20T05:00:39;5.07;;;3.80;;
18364;SDS011;9309;52.126;11.616;2023-05-20T05:03:06;4.27;;;3.23;;
18364;SDS011;9309;52.126;11.616;2023-05-20T05:05:33;4.70;;;3.23;;
18364;SDS011;9309;52.126;11.616;2023-05-20T05:08:03;4.67;;;3.50;;
18364;SDS011;9309;52.126;11.616;2023-05-20T05:10:31;4.17;;;3.73;;
18364;SDS011;9309;52.126;11.616;2023-05-20T05:12:58;3.67;;;3.30;;
18364;SDS011;9309;52.126;11.616;2023-05-20T05:15:25;6.43;;;3.70;;
18364;SDS011;9309;52.126;11.616;2023-05-20T05:17:52;4.10;;;3.20;;
18364;SDS011;9309;52.126;11.616;2023-05-20T05:20:19;5.27;;;3.70;;
18364;SDS011;9309;52.126;11.616;2023-05-20T05:22:46;4.17;;;3.73;;
18364;SDS011;9309;52.126;11.616;2023-05-20T05:25:16;4.23;;;3.50;;
18364;SDS011;9309;52.126;11.616;2023-05-20T05:27:42;3.37;;;2.93;;
18364;SDS011;9309;52.126;11.616;2023-05-20T05:30:09;3.37;;;3.13;;
18364;SDS011;9309;52.126;11.616;2023-05-20T05:32:36;5.73;;;3.10;;
18364;SDS011;9309;52.126;11.616;2023-05-20T05:35:03;3.93;;;3.13;;
18364;SDS011;9309;52.126;11.616;2023-05-20T05:37:31;3.80;;;3.50;;
18364;SDS011;9309;52.126;11.616;2023-05-20T05:39:57;4.13;;;3.53;;
18364;SDS011;9309;52.126;11.616;2023-05-20T05:42:26;6.57;;;3.90;;
18364;SDS011;9309;52.126;11.616;2023-05-20T05:44:54;3.27;;;3.07;;
18364;SDS011;9309;52.126;11.616;2023-05-20T05:47:21;3.47;;;3.17;;
18364;SDS011;9309;52.126;11.616;2023-05-20T05:49:47;5.90;;;3.77;;
18364;SDS011;9309;52.126;11.616;2023-05-20T05:52:15;6.73;;;3.90;;
18364;SDS011;9309;52.126;11.616;2023-05-20T05:54:42;3.93;;;3.73;;
18364;SDS011;9309;52.126;11.616;2023-05-20T05:57:10;4.57;;;3.33;;
18364;SDS011;9309;52.126;11.616;2023-05-20T05:59:38;5.50;;;4.10;;
18364;SDS011;9309;52.126;11.616;2023-05-20T06:02:05;4.97;;;3.70;;
18364;SDS011;9309;52.126;11.616;2023-05-20T06:04:34;4.70;;;3.37;;
18364;SDS011;9309;52.126;11.616;2023-05-20T06:07:01;3.93;;;3.60;;
18364;SDS011;9309;52.126;11.616;2023-05-20T06:09:28;5.27;;;3.50;;
18364;SDS011;9309;52.126;11.616;2023-05-20T06:11:56;4.33;;;3.60;;
18364;SDS011;9309;52.126;11.616;2023-05-20T06:14:22;3.90;;;3.60;;
18364;SDS011;9309;52.126;11.616;2023-05-20T06:16:51;5.63;;;4.10;;
18364;SDS011;9309;52.126;11.616;2023-05-20T06:19:18;4.40;;;3.93;;
18364;SDS011;9309;52.126;11.616;2023-05-20T06:21:45;4.13;;;3.50;;
18364;SDS011;9309;52.126;11.616;2023-05-20T06:24:12;4.27;;;3.87;;
18364;SDS011;9309;52.126;11.616;2023-05-20T06:26:39;3.03;;;2.90;;
18364;SDS011;9309;52.126;11.616;2023-05-20T06:29:06;4.73;;;3.83;;
18364;SDS011;9309;52.126;11.616;2023-05-20T06:31:33;5.90;;;4.20;;
18364;SDS011;9309;52.126;11.616;2023-05-20T06:34:02;3.97;;;3.67;;
18364;SDS011;9309;52.126;11.616;2023-05-20T06:36:29;4.00;;;3.67;;
18364;SDS011;9309;52.126;11.616;2023-05-20T06:38:55;4.17;;;3.80;;
18364;SDS011;9309;52.126;11.616;2023-05-20T06:41:23;5.77;;;3.80;;
18364;SDS011;9309;52.126;11.616;2023-05-20T06:43:50;3.40;;;3.10;;
18364;SDS011;9309;52.126;11.616;2023-05-20T06:46:36;4.40;;;3.83;;
18364;SDS011;9309;52.126;11.616;2023-05-20T06:49:10;5.43;;;3.73;;
18364;SDS011;9309;52.126;11.616;2023-05-20T06:51:37;4.07;;;3.77;;
18364;SDS011;9309;52.126;11.616;2023-05-20T06:54:03;4.27;;;3.60;;
18364;SDS011;9309;52.126;11.616;2023-05-20T06:56:30;3.80;;;3.50;;
18364;SDS011;9309;52.126;11.616;2023-05-20T06:58:57;4.77;;;4.03;;
18364;SDS011;9309;52.126;11.616;2023-05-20T07:01:25;4.23;;;3.27;;
18364;SDS011;9309;52.126;11.616;2023-05-20T07:03:52;4.57;;;3.80;;
18364;SDS011;9309;52.126;11.616;2023-05-20T07:06:20;3.50;;;3.10;;
18364;SDS011;9309;52.126;11.616;2023-05-20T07:08:47;3.73;;;3.43;;
18364;SDS011;9309;52.126;11.616;2023-05-20T07:11:14;4.10;;;3.57;;
18364;SDS011;9309;52.126;11.616;2023-05-20T07:13:41;4.50;;;3.50;;
18364;SDS011;9309;52.126;11.616;2023-05-20T07:16:08;5.67;;;3.33;;
18364;SDS011;9309;52.126;11.616;2023-05-20T07:18:37;3.43;;;3.13;;
18364;SDS011;9309;52.126;11.616;2023-05-20T07:21:04;3.97;;;3.40;;
18364;SDS011;9309;52.126;11.616;2023-05-20T07:23:51;5.97;;;3.80;;
18364;SDS011;9309;52.126;11.616;2023-05-20T07:26:17;5.57;;;3.90;;
18364;SDS011;9309;52.126;11.616;2023-05-20T07:28:45;8.87;;;3.67;;
18364;SDS011;9309;52.126;11.616;2023-05-20T07:31:12;4.53;;;3.40;;
18364;SDS011;9309;52.126;11.616;2023-05-20T07:33:43;2.70;;;2.50;;
18364;SDS011;9309;52.126;11.616;2023-05-20T07:36:10;3.90;;;3.50;;
18364;SDS011;9309;52.126;11.616;2023-05-20T07:38:39;4.10;;;3.40;;
18364;SDS011;9309;52.126;11.616;2023-05-20T07:41:09;4.57;;;3.73;;
18364;SDS011;9309;52.126;11.616;2023-05-20T07:43:35;3.83;;;3.53;;
18364;SDS011;9309;52.126;11.616;2023-05-20T07:46:02;5.03;;;3.23;;
18364;SDS011;9309;52.126;11.616;2023-05-20T07:48:29;4.40;;;3.30;;
18364;SDS011;9309;52.126;11.616;2023-05-20T07:50:56;4.00;;;3.47;;
18364;SDS011;9309;52.126;11.616;2023-05-20T07:53:24;4.00;;;3.20;;
18364;SDS011;9309;52.126;11.616;2023-05-20T07:55:51;5.50;;;3.27;;
18364;SDS011;9309;52.126;11.616;2023-05-20T07:58:19;5.10;;;3.57;;
18364;SDS011;9309;52.126;11.616;2023-05-20T08:00:46;4.40;;;2.97;;
18364;SDS011;9309;52.126;11.616;2023-05-20T08:03:13;7.90;;;3.57;;
18364;SDS011;9309;52.126;11.616;2023-05-20T08:05:51;3.53;;;3.23;;
18364;SDS011;9309;52.126;11.616;2023-05-20T08:08:18;6.50;;;3.73;;
18364;SDS011;9309;52.126;11.616;2023-05-20T08:10:51;5.07;;;3.47;;
18364;SDS011;9309;52.126;11.616;2023-05-20T08:13:21;7.50;;;3.73;;
18364;SDS011;9309;52.126;11.616;2023-05-20T08:15:48;4.53;;;3.77;;
18364;SDS011;9309;52.126;11.616;2023-05-20T08:18:17;7.03;;;3.87;;
18364;SDS011;9309;52.126;11.616;2023-05-20T08:20:44;6.27;;;3.70;;
18364;SDS011;9309;52.126;11.616;2023-05-20T08:23:10;8.37;;;4.40;;
18364;SDS011;9309;52.126;11.616;2023-05-20T08:25:37;9.90;;;3.77;;
18364;SDS011;9309;52.126;11.616;2023-05-20T08:28:05;4.77;;;3.87;;
18364;SDS011;9309;52.126;11.616;2023-05-20T08:30:36;9.13;;;4.50;;
18364;SDS011;9309;52.126;11.616;2023-05-20T08:33:03;9.23;;;3.93;;
18364;SDS011;9309;52.126;11.616;2023-05-20T08:35:29;4.83;;;3.90;;
18364;SDS011;9309;52.126;11.616;2023-05-20T08:37:56;5.80;;;3.77;;
18364;SDS011;9309;52.126;11.616;2023-05-20T08:40:25;7.17;;;4.00;;
18364;SDS011;9309;52.126;11.616;2023-05-20T08:42:52;8.97;;;4.63;;
18364;SDS011;9309;52.126;11.616;2023-05-20T08:45:19;8.20;;;4.13;;
18364;SDS011;9309;52.126;11.616;2023-05-20T08:47:52;6.37;;;4.70;;
18364;SDS011;9309;52.126;11.616;2023-05-20T08:50:19;6.53;;;3.63;;
18364;SDS011;9309;52.126;11.616;2023-05-20T08:52:47;6.63;;;4.70;;
18364;SDS011;9309;52.126;11.616;2023-05-20T08:55:14;6.77;;;3.60;;
18364;SDS011;9309;52.126;11.616;2023-05-20T08:57:46;5.50;;;3.87;;
18364;SDS011;9309;52.126;11.616;2023-05-20T09:00:14;4.70;;;4.20;;
18364;SDS011;9309;52.126;11.616;2023-05-20T09:02:43;5.73;;;3.90;;
18364;SDS011;9309;52.126;11.616;2023-05-20T09:05:12;4.97;;;4.03;;
18364;SDS011;9309;52.126;11.616;2023-05-20T09:07:39;5.83;;;4.10;;
18364;SDS011;9309;52.126;11.616;2023-05-20T09:10:08;4.33;;;3.77;;
18364;SDS011;9309;52.126;11.616;2023-05-20T09:12:35;6.37;;;4.03;;
18364;SDS011;9309;52.126;11.616;2023-05-20T09:15:02;5.00;;;3.50;;
18364;SDS011;9309;52.126;11.616;2023-05-20T09:17:29;6.13;;;3.90;;
18364;SDS011;9309;52.126;11.616;2023-05-20T09:19:56;4.30;;;3.90;;
18364;SDS011;9309;52.126;11.616;2023-05-20T09:22:24;5.03;;;3.63;;
18364;SDS011;9309;52.126;11.616;2023-05-20T09:24:52;5.27;;;3.80;;
18364;SDS011;9309;52.126;11.616;2023-05-20T09:27:19;5.63;;;3.77;;
18364;SDS011;9309;52.126;11.616;2023-05-20T09:29:48;6.27;;;4.10;;
18364;SDS011;9309;52.126;11.616;2023-05-20T09:32:15;6.87;;;3.27;;
18364;SDS011;9309;52.126;11.616;2023-05-20T09:34:42;4.70;;;3.60;;
18364;SDS011;9309;52.126;11.616;2023-05-20T09:37:09;4.57;;;3.70;;
18364;SDS011;9309;52.126;11.616;2023-05-20T09:39:42;10.50;;;4.13;;
18364;SDS011;9309;52.126;11.616;2023-05-20T09:42:14;8.03;;;4.80;;
18364;SDS011;9309;52.126;11.616;2023-05-20T09:44:46;5.10;;;4.00;;
18364;SDS011;9309;52.126;11.616;2023-05-20T09:47:15;4.63;;;4.20;;
18364;SDS011;9309;52.126;11.616;2023-05-20T09:49:43;3.97;;;3.57;;
18364;SDS011;9309;52.126;11.616;2023-05-20T09:52:11;5.10;;;3.40;;
18364;SDS011;9309;52.126;11.616;2023-05-20T09:54:41;6.60;;;4.07;;
18364;SDS011;9309;52.126;11.616;2023-05-20T09:57:09;5.57;;;3.70;;
18364;SDS011;9309;52.126;11.616;2023-05-20T09:59:37;8.87;;;3.80;;
18364;SDS011;9309;52.126;11.616;2023-05-20T10:02:05;6.77;;;3.67;;
18364;SDS011;9309;52.126;11.616;2023-05-20T10:04:31;5.63;;;4.03;;
18364;SDS011;9309;52.126;11.616;2023-05-20T10:07:06;5.67;;;4.13;;
18364;SDS011;9309;52.126;11.616;2023-05-20T10:09:48;8.83;;;4.37;;
18364;SDS011;9309;52.126;11.616;2023-05-20T10:12:26;5.63;;;4.17;;
18364;SDS011;9309;52.126;11.616;2023-05-20T10:15:14;8.53;;;3.57;;
18364;SDS011;9309;52.126;11.616;2023-05-20T10:17:52;6.40;;;4.27;;
18364;SDS011;9309;52.126;11.616;2023-05-20T10:20:27;9.50;;;4.33;;
18364;SDS011;9309;52.126;11.616;2023-05-20T10:22:55;9.33;;;3.93;;
18364;SDS011;9309;52.126;11.616;2023-05-20T10:25:24;7.60;;;3.67;;
18364;SDS011;9309;52.126;11.616;2023-05-20T10:28:02;7.97;;;4.10;;
18364;SDS011;9309;52.126;11.616;2023-05-20T10:30:31;6.13;;;4.13;;
18364;SDS011;9309;52.126;11.616;2023-05-20T10:33:02;8.73;;;4.33;;
18364;SDS011;9309;52.126;11.616;2023-05-20T10:35:30;5.30;;;3.60;;
18364;SDS011;9309;52.126;11.616;2023-05-20T10:38:05;10.27;;;4.13;;
18364;SDS011;9309;52.126;11.616;2023-05-20T10:40:35;7.47;;;4.50;;
18364;SDS011;9309;52.126;11.616;2023-05-20T10:43:07;9.10;;;4.37;;
18364;SDS011;9309;52.126;11.616;2023-05-20T10:45:46;8.27;;;4.50;;
18364;SDS011;9309;52.126;11.616;2023-05-20T10:48:19;6.57;;;4.67;;
18364;SDS011;9309;52.126;11.616;2023-05-20T10:50:46;10.13;;;4.60;;
18364;SDS011;9309;52.126;11.616;2023-05-20T10:53:13;9.80;;;5.30;;
18364;SDS011;9309;52.126;11.616;2023-05-20T10:55:47;5.67;;;3.87;;
18364;SDS011;9309;52.126;11.616;2023-05-20T10:58:15;6.20;;;4.40;;
18364;SDS011;9309;52.126;11.616;2023-05-20T11:00:42;11.47;;;4.60;;
18364;SDS011;9309;52.126;11.616;2023-05-20T11:03:09;12.20;;;4.50;;
18364;SDS011;9309;52.126;11.616;2023-05-20T11:05:37;3.67;;;3.13;;
18364;SDS011;9309;52.126;11.616;2023-05-20T11:08:05;6.43;;;3.30;;
18364;SDS011;9309;52.126;11.616;2023-05-20T11:10:33;8.73;;;4.20;;
18364;SDS011;9309;52.126;11.616;2023-05-20T11:13:02;7.07;;;3.97;;
18364;SDS011;9309;52.126;11.616;2023-05-20T11:15:30;6.17;;;3.97;;
18364;SDS011;9309;52.126;11.616;2023-05-20T11:17:59;6.23;;;4.30;;
18364;SDS011;9309;52.126;11.616;2023-05-20T11:20:26;4.77;;;3.77;;
18364;SDS011;9309;52.126;11.616;2023-05-20T11:22:53;5.10;;;3.97;;
18364;SDS011;9309;52.126;11.616;2023-05-20T11:25:20;7.83;;;3.87;;
18364;SDS011;9309;52.126;11.616;2023-05-20T11:27:48;5.17;;;3.80;;
18364;SDS011;9309;52.126;11.616;2023-05-20T11:30:16;5.07;;;3.40;;
18364;SDS011;9309;52.126;11.616;2023-05-20T11:32:54;9.13;;;4.13;;
18364;SDS011;9309;52.126;11.616;2023-05-20T11:35:22;6.73;;;3.93;;
18364;SDS011;9309;52.126;11.616;2023-05-20T11:37:55;3.80;;;3.47;;
18364;SDS011;9309;52.126;11.616;2023-05-20T11:40:23;4.18;;;3.38;;
18364;SDS011;9309;52.126;11.616;2023-05-20T11:42:52;6.68;;;4.07;;
18364;SDS011;9309;52.126;11.616;2023-05-20T11:45:22;6.35;;;3.80;;
18364;SDS011;9309;52.126;11.616;2023-05-20T11:47:58;4.00;;;3.55;;
18364;SDS011;9309;52.126;11.616;2023-05-20T11:50:26;6.13;;;3.47;;
18364;SDS011;9309;52.126;11.616;2023-05-20T11:52:55;4.72;;;3.17;;
18364;SDS011;9309;52.126;11.616;2023-05-20T11:55:22;4.93;;;3.70;;
18364;SDS011;9309;52.126;11.616;2023-05-20T11:57:49;3.73;;;3.33;;
18364;SDS011;9309;52.126;11.616;2023-05-20T12:00:16;7.05;;;3.55;;
18364;SDS011;9309;52.126;11.616;2023-05-20T12:02:45;4.82;;;3.50;;
18364;SDS011;9309;52.126;11.616;2023-05-20T12:05:12;9.40;;;3.60;;
18364;SDS011;9309;52.126;11.616;2023-05-20T12:07:39;3.90;;;3.40;;
18364;SDS011;9309;52.126;11.616;2023-05-20T12:10:06;5.50;;;3.47;;
18364;SDS011;9309;52.126;11.616;2023-05-20T12:12:33;5.00;;;3.70;;
18364;SDS011;9309;52.126;11.616;2023-05-20T12:15:01;4.80;;;3.05;;
18364;SDS011;9309;52.126;11.616;2023-05-20T12:17:28;5.55;;;3.40;;
18364;SDS011;9309;52.126;11.616;2023-05-20T12:19:56;6.20;;;3.00;;
18364;SDS011;9309;52.126;11.616;2023-05-20T12:22:23;3.67;;;2.67;;
18364;SDS011;9309;52.126;11.616;2023-05-20T12:24:49;4.47;;;3.30;;
18364;SDS011;9309;52.126;11.616;2023-05-20T12:27:17;3.83;;;3.05;;
18364;SDS011;9309;52.126;11.616;2023-05-20T12:29:44;5.75;;;3.47;;
18364;SDS011;9309;52.126;11.616;2023-05-20T12:32:10;5.80;;;3.90;;
18364;SDS011;9309;52.126;11.616;2023-05-20T12:34:37;4.93;;;2.60;;
18364;SDS011;9309;52.126;11.616;2023-05-20T12:37:05;7.35;;;3.47;;
18364;SDS011;9309;52.126;11.616;2023-05-20T12:39:32;5.78;;;3.10;;
18364;SDS011;9309;52.126;11.616;2023-05-20T12:41:58;3.03;;;2.78;;
18364;SDS011;9309;52.126;11.616;2023-05-20T12:44:25;3.20;;;2.95;;
18364;SDS011;9309;52.126;11.616;2023-05-20T12:46:53;2.83;;;2.63;;
18364;SDS011;9309;52.126;11.616;2023-05-20T12:49:20;8.82;;;3.47;;
18364;SDS011;9309;52.126;11.616;2023-05-20T12:51:47;3.33;;;3.03;;
18364;SDS011;9309;52.126;11.616;2023-05-20T12:54:15;3.13;;;2.92;;
18364;SDS011;9309;52.126;11.616;2023-05-20T12:56:43;3.17;;;2.97;;
18364;SDS011;9309;52.126;11.616;2023-05-20T12:59:11;2.65;;;2.45;;
18364;SDS011;9309;52.126;11.616;2023-05-20T13:01:38;5.35;;;2.90;;
18364;SDS011;9309;52.126;11.616;2023-05-20T13:04:05;5.18;;;2.72;;
18364;SDS011;9309;52.126;11.616;2023-05-20T13:06:32;3.75;;;3.15;;
18364;SDS011;9309;52.126;11.616;2023-05-20T13:08:59;3.85;;;3.42;;
18364;SDS011;9309;52.126;11.616;2023-05-20T13:11:27;3.78;;;2.88;;
18364;SDS011;9309;52.126;11.616;2023-05-20T13:13:54;3.10;;;2.90;;
18364;SDS011;9309;52.126;11.616;2023-05-20T13:16:21;4.95;;;3.20;;
18364;SDS011;9309;52.126;11.616;2023-05-20T13:18:48;2.83;;;2.63;;
18364;SDS011;9309;52.126;11.616;2023-05-20T13:21:15;4.13;;;3.10;;
18364;SDS011;9309;52.126;11.616;2023-05-20T13:23:42;3.63;;;3.30;;
18364;SDS011;9309;52.126;11.616;2023-05-20T13:26:08;2.70;;;2.55;;
18364;SDS011;9309;52.126;11.616;2023-05-20T13:28:39;2.50;;;2.30;;
18364;SDS011;9309;52.126;11.616;2023-05-20T13:31:06;2.90;;;2.70;;
18364;SDS011;9309;52.126;11.616;2023-05-20T13:33:33;5.07;;;2.97;;
18364;SDS011;9309;52.126;11.616;2023-05-20T13:35:59;3.13;;;2.92;;
18364;SDS011;9309;52.126;11.616;2023-05-20T13:38:26;2.80;;;2.60;;
18364;SDS011;9309;52.126;11.616;2023-05-20T13:40:53;2.75;;;2.55;;
18364;SDS011;9309;52.126;11.616;2023-05-20T13:43:23;5.90;;;2.70;;
18364;SDS011;9309;52.126;11.616;2023-05-20T13:45:52;3.55;;;3.25;;
18364;SDS011;9309;52.126;11.616;2023-05-20T13:48:18;5.80;;;3.13;;
18364;SDS011;9309;52.126;11.616;2023-05-20T13:50:45;3.28;;;3.00;;
18364;SDS011;9309;52.126;11.616;2023-05-20T13:53:12;3.17;;;2.85;;
18364;SDS011;9309;52.126;11.616;2023-05-20T13:55:39;4.25;;;2.92;;
18364;SDS011;9309;52.126;11.616;2023-05-20T13:58:06;3.30;;;3.00;;
18364;SDS011;9309;52.126;11.616;2023-05-20T14:00:33;3.20;;;2.90;;
18364;SDS011;9309;52.126;11.616;2023-05-20T14:03:02;2.90;;;2.67;;
18364;SDS011;9309;52.126;11.616;2023-05-20T14:05:29;2.78;;;2.53;;
18364;SDS011;9309;52.126;11.616;2023-05-20T14:07:56;2.90;;;2.70;;
18364;SDS011;9309;52.126;11.616;2023-05-20T14:10:23;3.78;;;2.63;;
18364;SDS011;9309;52.126;11.616;2023-05-20T14:12:50;3.03;;;2.90;;
18364;SDS011;9309;52.126;11.616;2023-05-20T14:15:17;3.92;;;2.42;;
18364;SDS011;9309;52.126;11.616;2023-05-20T14:17:44;4.85;;;3.05;;
18364;SDS011;9309;52.126;11.616;2023-05-20T14:20:12;2.95;;;2.72;;
18364;SDS011;9309;52.126;11.616;2023-05-20T14:22:39;3.78;;;3.15;;
18364;SDS011;9309;52.126;11.616;2023-05-20T14:25:06;3.67;;;3.28;;
18364;SDS011;9309;52.126;11.616;2023-05-20T14:27:33;4.10;;;3.00;;
18364;SDS011;9309;52.126;11.616;2023-05-20T14:30:00;5.07;;;3.58;;
18364;SDS011;9309;52.126;11.616;2023-05-20T14:32:27;4.32;;;3.22;;
18364;SDS011;9309;52.126;11.616;2023-05-20T14:34:54;3.70;;;3.20;;
18364;SDS011;9309;52.126;11.616;2023-05-20T14:37:22;2.97;;;2.80;;
18364;SDS011;9309;52.126;11.616;2023-05-20T14:39:48;7.00;;;3.45;;
18364;SDS011;9309;52.126;11.616;2023-05-20T14:42:15;4.00;;;3.40;;
18364;SDS011;9309;52.126;11.616;2023-05-20T14:44:42;3.63;;;3.42;;
18364;SDS011;9309;52.126;11.616;2023-05-20T14:47:08;5.75;;;4.03;;
18364;SDS011;9309;52.126;11.616;2023-05-20T14:49:35;4.15;;;3.50;;
18364;SDS011;9309;52.126;11.616;2023-05-20T14:52:03;4.55;;;3.53;;